sensor_id;sensor_type;location;lat;lon;timestamp;P1;durP1;ratioP1;P2;durP2;ratioP2
9392;SDS011;4736;52.508;13.422;2022-10-03T00:00:09;18.80;;;5.27;;
9392;SDS011;4736;52.508;13.422;2022-10-03T00:03:29;25.23;;;5.83;;
9392;SDS011;4736;52.508;13.422;2022-10-03T00:06:41;17.43;;;5.00;;
9392;SDS011;4736;52.508;13.422;2022-10-03T00:09:57;18.43;;;5.10;;
9392;SDS011;4736;52.508;13.422;2022-10-03T00:13:11;13.07;;;5.13;;
9392;SDS011;4736;52.508;13.422;2022-10-03T00:16:26;15.33;;;5.13;;
9392;SDS011;4736;52.508;13.422;2022-10-03T00:19:42;19.97;;;5.90;;
9392;SDS011;4736;52.508;13.422;2022-10-03T00:22:55;20.27;;;4.83;;
9392;SDS011;4736;52.508;13.422;2022-10-03T00:26:04;16.10;;;5.37;;
9392;SDS011;4736;52.508;13.422;2022-10-03T00:29:43;24.67;;;5.00;;
9392;SDS011;4736;52.508;13.422;2022-10-03T00:33:08;11.70;;;4.80;;
9392;SDS011;4736;52.508;13.422;2022-10-03T00:36:25;17.43;;;5.60;;
9392;SDS011;4736;52.508;13.422;2022-10-03T00:39:38;17.73;;;5.10;;
9392;SDS011;4736;52.508;13.422;2022-10-03T00:43:11;16.90;;;4.73;;
9392;SDS011;4736;52.508;13.422;2022-10-03T00:46:44;20.57;;;4.63;;
9392;SDS011;4736;52.508;13.422;2022-10-03T00:50:13;14.93;;;4.00;;
9392;SDS011;4736;52.508;13.422;2022-10-03T00:53:42;15.50;;;4.80;;
9392;SDS011;4736;52.508;13.422;2022-10-03T00:57:10;15.37;;;4.80;;
9392;SDS011;4736;52.508;13.422;2022-10-03T01:00:26;14.20;;;4.77;;
9392;SDS011;4736;52.508;13.422;2022-10-03T01:03:34;15.67;;;5.00;;
9392;SDS011;4736;52.508;13.422;2022-10-03T01:06:45;20.03;;;4.97;;
9392;SDS011;4736;52.508;13.422;2022-10-03T01:09:53;16.97;;;5.10;;
9392;SDS011;4736;52.508;13.422;2022-10-03T01:13:07;18.37;;;5.00;;
9392;SDS011;4736;52.508;13.422;2022-10-03T01:16:20;17.00;;;4.57;;
9392;SDS011;4736;52.508;13.422;2022-10-03T01:19:34;18.60;;;4.37;;
9392;SDS011;4736;52.508;13.422;2022-10-03T01:22:54;16.80;;;4.70;;
9392;SDS011;4736;52.508;13.422;2022-10-03T01:26:13;16.03;;;4.53;;
9392;SDS011;4736;52.508;13.422;2022-10-03T01:29:37;18.40;;;4.80;;
9392;SDS011;4736;52.508;13.422;2022-10-03T01:33:04;10.23;;;4.63;;
9392;SDS011;4736;52.508;13.422;2022-10-03T01:36:11;14.80;;;4.90;;
9392;SDS011;4736;52.508;13.422;2022-10-03T01:39:21;7.90;;;4.13;;
9392;SDS011;4736;52.508;13.422;2022-10-03T01:42:32;8.90;;;4.30;;
9392;SDS011;4736;52.508;13.422;2022-10-03T01:45:48;12.83;;;4.23;;
9392;SDS011;4736;52.508;13.422;2022-10-03T01:49:04;13.07;;;4.17;;
9392;SDS011;4736;52.508;13.422;2022-10-03T01:52:14;10.40;;;4.93;;
9392;SDS011;4736;52.508;13.422;2022-10-03T01:55:30;13.23;;;4.80;;
9392;SDS011;4736;52.508;13.422;2022-10-03T01:58:46;11.00;;;4.40;;
9392;SDS011;4736;52.508;13.422;2022-10-03T02:01:59;13.03;;;4.43;;
9392;SDS011;4736;52.508;13.422;2022-10-03T02:05:09;13.37;;;4.93;;
9392;SDS011;4736;52.508;13.422;2022-10-03T02:08:22;10.50;;;4.67;;
9392;SDS011;4736;52.508;13.422;2022-10-03T02:11:33;10.80;;;4.47;;
9392;SDS011;4736;52.508;13.422;2022-10-03T02:14:45;15.37;;;4.17;;
9392;SDS011;4736;52.508;13.422;2022-10-03T02:17:55;11.80;;;4.37;;
9392;SDS011;4736;52.508;13.422;2022-10-03T02:21:03;7.03;;;3.87;;
9392;SDS011;4736;52.508;13.422;2022-10-03T02:24:19;8.77;;;4.43;;
9392;SDS011;4736;52.508;13.422;2022-10-03T02:27:38;6.80;;;4.03;;
9392;SDS011;4736;52.508;13.422;2022-10-03T02:34:44;12.63;;;4.30;;
9392;SDS011;4736;52.508;13.422;2022-10-03T02:38:06;11.33;;;4.37;;
9392;SDS011;4736;52.508;13.422;2022-10-03T02:41:22;16.13;;;4.40;;
9392;SDS011;4736;52.508;13.422;2022-10-03T02:45:00;10.57;;;4.27;;
9392;SDS011;4736;52.508;13.422;2022-10-03T02:48:30;11.30;;;4.67;;
9392;SDS011;4736;52.508;13.422;2022-10-03T02:55:39;17.17;;;4.90;;
9392;SDS011;4736;52.508;13.422;2022-10-03T02:59:07;6.97;;;3.93;;
9392;SDS011;4736;52.508;13.422;2022-10-03T03:02:52;12.13;;;4.33;;
9392;SDS011;4736;52.508;13.422;2022-10-03T03:06:30;11.90;;;4.23;;
9392;SDS011;4736;52.508;13.422;2022-10-03T03:17:26;12.63;;;4.30;;
9392;SDS011;4736;52.508;13.422;2022-10-03T03:20:53;13.10;;;4.80;;
9392;SDS011;4736;52.508;13.422;2022-10-03T03:24:16;10.57;;;4.40;;
9392;SDS011;4736;52.508;13.422;2022-10-03T03:27:36;15.47;;;4.63;;
9392;SDS011;4736;52.508;13.422;2022-10-03T03:30:51;13.10;;;4.40;;
9392;SDS011;4736;52.508;13.422;2022-10-03T03:34:04;12.67;;;4.53;;
9392;SDS011;4736;52.508;13.422;2022-10-03T03:37:17;12.47;;;4.10;;
9392;SDS011;4736;52.508;13.422;2022-10-03T03:40:30;15.33;;;4.43;;
9392;SDS011;4736;52.508;13.422;2022-10-03T03:43:46;12.90;;;4.40;;
9392;SDS011;4736;52.508;13.422;2022-10-03T03:47:08;14.30;;;4.60;;
9392;SDS011;4736;52.508;13.422;2022-10-03T03:50:30;12.27;;;4.23;;
9392;SDS011;4736;52.508;13.422;2022-10-03T03:53:48;10.47;;;4.33;;
9392;SDS011;4736;52.508;13.422;2022-10-03T03:57:12;10.13;;;4.37;;
9392;SDS011;4736;52.508;13.422;2022-10-03T04:00:40;11.30;;;5.13;;
9392;SDS011;4736;52.508;13.422;2022-10-03T04:04:07;12.87;;;4.50;;
9392;SDS011;4736;52.508;13.422;2022-10-03T04:07:21;16.70;;;4.73;;
9392;SDS011;4736;52.508;13.422;2022-10-03T04:10:35;13.60;;;4.73;;
9392;SDS011;4736;52.508;13.422;2022-10-03T04:14:02;12.40;;;4.47;;
9392;SDS011;4736;52.508;13.422;2022-10-03T04:17:28;11.27;;;4.67;;
9392;SDS011;4736;52.508;13.422;2022-10-03T04:21:00;10.07;;;4.20;;
9392;SDS011;4736;52.508;13.422;2022-10-03T04:24:23;9.67;;;4.87;;
9392;SDS011;4736;52.508;13.422;2022-10-03T04:27:52;14.00;;;4.70;;
9392;SDS011;4736;52.508;13.422;2022-10-03T04:31:17;16.90;;;5.03;;
9392;SDS011;4736;52.508;13.422;2022-10-03T04:34:34;14.77;;;5.40;;
9392;SDS011;4736;52.508;13.422;2022-10-03T04:37:48;9.37;;;4.53;;
9392;SDS011;4736;52.508;13.422;2022-10-03T04:40:59;14.17;;;4.20;;
9392;SDS011;4736;52.508;13.422;2022-10-03T04:44:10;15.30;;;4.00;;
9392;SDS011;4736;52.508;13.422;2022-10-03T04:47:24;7.70;;;4.00;;
9392;SDS011;4736;52.508;13.422;2022-10-03T04:50:32;12.63;;;4.37;;
9392;SDS011;4736;52.508;13.422;2022-10-03T04:53:42;10.93;;;4.03;;
9392;SDS011;4736;52.508;13.422;2022-10-03T04:56:57;16.50;;;4.73;;
9392;SDS011;4736;52.508;13.422;2022-10-03T05:00:04;13.93;;;4.47;;
9392;SDS011;4736;52.508;13.422;2022-10-03T05:03:26;10.90;;;4.90;;
9392;SDS011;4736;52.508;13.422;2022-10-03T05:06:41;14.43;;;4.10;;
9392;SDS011;4736;52.508;13.422;2022-10-03T05:09:51;15.43;;;4.33;;
9392;SDS011;4736;52.508;13.422;2022-10-03T05:12:59;12.03;;;4.10;;
9392;SDS011;4736;52.508;13.422;2022-10-03T05:16:13;17.80;;;5.83;;
9392;SDS011;4736;52.508;13.422;2022-10-03T05:19:34;10.33;;;3.77;;
9392;SDS011;4736;52.508;13.422;2022-10-03T05:22:50;14.67;;;4.70;;
9392;SDS011;4736;52.508;13.422;2022-10-03T05:26:03;17.87;;;4.57;;
9392;SDS011;4736;52.508;13.422;2022-10-03T05:29:33;8.30;;;4.70;;
9392;SDS011;4736;52.508;13.422;2022-10-03T05:32:42;18.30;;;4.37;;
9392;SDS011;4736;52.508;13.422;2022-10-03T05:35:50;12.13;;;4.20;;
9392;SDS011;4736;52.508;13.422;2022-10-03T05:39:22;9.97;;;4.30;;
9392;SDS011;4736;52.508;13.422;2022-10-03T05:42:34;15.80;;;5.33;;
9392;SDS011;4736;52.508;13.422;2022-10-03T05:45:48;14.57;;;4.40;;
9392;SDS011;4736;52.508;13.422;2022-10-03T05:49:01;10.23;;;4.13;;
9392;SDS011;4736;52.508;13.422;2022-10-03T05:52:23;12.67;;;3.63;;
9392;SDS011;4736;52.508;13.422;2022-10-03T05:55:55;22.57;;;4.80;;
9392;SDS011;4736;52.508;13.422;2022-10-03T05:59:26;9.20;;;3.87;;
9392;SDS011;4736;52.508;13.422;2022-10-03T06:02:45;11.37;;;4.20;;
9392;SDS011;4736;52.508;13.422;2022-10-03T06:06:17;8.83;;;4.07;;
9392;SDS011;4736;52.508;13.422;2022-10-03T06:09:32;16.03;;;4.30;;
9392;SDS011;4736;52.508;13.422;2022-10-03T06:12:52;12.07;;;4.33;;
9392;SDS011;4736;52.508;13.422;2022-10-03T06:16:10;13.10;;;4.43;;
9392;SDS011;4736;52.508;13.422;2022-10-03T06:19:29;5.77;;;4.20;;
9392;SDS011;4736;52.508;13.422;2022-10-03T06:22:49;7.33;;;3.87;;
9392;SDS011;4736;52.508;13.422;2022-10-03T06:33:51;9.40;;;4.30;;
9392;SDS011;4736;52.508;13.422;2022-10-03T06:37:24;13.27;;;4.43;;
9392;SDS011;4736;52.508;13.422;2022-10-03T06:41:07;13.07;;;3.93;;
9392;SDS011;4736;52.508;13.422;2022-10-03T06:44:35;12.80;;;3.80;;
9392;SDS011;4736;52.508;13.422;2022-10-03T06:48:00;8.77;;;3.70;;
9392;SDS011;4736;52.508;13.422;2022-10-03T07:02:28;12.80;;;4.07;;
9392;SDS011;4736;52.508;13.422;2022-10-03T07:06:01;10.37;;;4.03;;
9392;SDS011;4736;52.508;13.422;2022-10-03T07:13:17;15.90;;;4.57;;
9392;SDS011;4736;52.508;13.422;2022-10-03T07:16:47;10.70;;;4.00;;
9392;SDS011;4736;52.508;13.422;2022-10-03T07:20:04;9.90;;;4.03;;
9392;SDS011;4736;52.508;13.422;2022-10-03T07:23:32;15.73;;;4.50;;
9392;SDS011;4736;52.508;13.422;2022-10-03T07:30:19;14.03;;;4.37;;
9392;SDS011;4736;52.508;13.422;2022-10-03T07:37:20;11.03;;;4.30;;
9392;SDS011;4736;52.508;13.422;2022-10-03T07:41:08;10.47;;;4.37;;
9392;SDS011;4736;52.508;13.422;2022-10-03T07:51:34;14.27;;;4.23;;
9392;SDS011;4736;52.508;13.422;2022-10-03T07:54:55;9.77;;;4.00;;
9392;SDS011;4736;52.508;13.422;2022-10-03T07:58:43;12.93;;;3.43;;
9392;SDS011;4736;52.508;13.422;2022-10-03T08:02:06;12.50;;;4.27;;
9392;SDS011;4736;52.508;13.422;2022-10-03T08:05:32;13.63;;;4.10;;
9392;SDS011;4736;52.508;13.422;2022-10-03T08:12:47;8.57;;;3.90;;
9392;SDS011;4736;52.508;13.422;2022-10-03T08:16:08;11.70;;;3.90;;
9392;SDS011;4736;52.508;13.422;2022-10-03T08:19:26;8.00;;;3.80;;
9392;SDS011;4736;52.508;13.422;2022-10-03T08:22:46;11.33;;;4.27;;
9392;SDS011;4736;52.508;13.422;2022-10-03T08:26:04;11.93;;;3.73;;
9392;SDS011;4736;52.508;13.422;2022-10-03T08:29:28;12.83;;;4.00;;
9392;SDS011;4736;52.508;13.422;2022-10-03T08:33:01;10.23;;;3.73;;
9392;SDS011;4736;52.508;13.422;2022-10-03T08:36:43;10.93;;;3.67;;
9392;SDS011;4736;52.508;13.422;2022-10-03T08:40:22;13.90;;;4.23;;
9392;SDS011;4736;52.508;13.422;2022-10-03T08:47:54;8.07;;;3.93;;
9392;SDS011;4736;52.508;13.422;2022-10-03T09:02:33;13.00;;;3.80;;
9392;SDS011;4736;52.508;13.422;2022-10-03T09:10:23;15.57;;;4.27;;
9392;SDS011;4736;52.508;13.422;2022-10-03T09:17:33;10.93;;;4.00;;
9392;SDS011;4736;52.508;13.422;2022-10-03T09:21:14;8.53;;;4.10;;
9392;SDS011;4736;52.508;13.422;2022-10-03T09:24:48;11.13;;;4.00;;
9392;SDS011;4736;52.508;13.422;2022-10-03T09:28:13;11.30;;;3.77;;
9392;SDS011;4736;52.508;13.422;2022-10-03T09:31:49;15.43;;;4.07;;
9392;SDS011;4736;52.508;13.422;2022-10-03T09:35:40;8.97;;;4.00;;
9392;SDS011;4736;52.508;13.422;2022-10-03T09:39:10;8.90;;;3.30;;
9392;SDS011;4736;52.508;13.422;2022-10-03T09:42:54;13.00;;;3.83;;
9392;SDS011;4736;52.508;13.422;2022-10-03T09:46:40;13.40;;;3.60;;
9392;SDS011;4736;52.508;13.422;2022-10-03T09:57:40;9.10;;;3.93;;
9392;SDS011;4736;52.508;13.422;2022-10-03T10:01:10;12.37;;;3.57;;
9392;SDS011;4736;52.508;13.422;2022-10-03T10:04:36;9.63;;;3.97;;
9392;SDS011;4736;52.508;13.422;2022-10-03T10:08:02;10.53;;;3.67;;
9392;SDS011;4736;52.508;13.422;2022-10-03T10:11:36;8.10;;;3.67;;
9392;SDS011;4736;52.508;13.422;2022-10-03T10:15:12;8.20;;;3.70;;
9392;SDS011;4736;52.508;13.422;2022-10-03T10:18:31;10.70;;;4.03;;
9392;SDS011;4736;52.508;13.422;2022-10-03T10:22:15;8.30;;;4.10;;
9392;SDS011;4736;52.508;13.422;2022-10-03T10:25:56;7.57;;;3.60;;
9392;SDS011;4736;52.508;13.422;2022-10-03T10:29:32;14.50;;;3.53;;
9392;SDS011;4736;52.508;13.422;2022-10-03T10:47:56;8.37;;;3.57;;
9392;SDS011;4736;52.508;13.422;2022-10-03T10:51:29;4.50;;;3.27;;
9392;SDS011;4736;52.508;13.422;2022-10-03T10:59:09;5.63;;;3.03;;
9392;SDS011;4736;52.508;13.422;2022-10-03T11:10:11;10.77;;;3.37;;
9392;SDS011;4736;52.508;13.422;2022-10-03T11:13:47;5.60;;;2.93;;
9392;SDS011;4736;52.508;13.422;2022-10-03T11:17:35;9.37;;;3.10;;
9392;SDS011;4736;52.508;13.422;2022-10-03T11:20:59;5.73;;;3.20;;
9392;SDS011;4736;52.508;13.422;2022-10-03T11:24:36;7.87;;;3.40;;
9392;SDS011;4736;52.508;13.422;2022-10-03T11:28:29;5.00;;;3.10;;
9392;SDS011;4736;52.508;13.422;2022-10-03T11:36:02;7.10;;;3.13;;
9392;SDS011;4736;52.508;13.422;2022-10-03T11:39:35;4.73;;;2.77;;
9392;SDS011;4736;52.508;13.422;2022-10-03T11:42:51;8.10;;;3.30;;
9392;SDS011;4736;52.508;13.422;2022-10-03T11:46:00;6.87;;;3.27;;
9392;SDS011;4736;52.508;13.422;2022-10-03T11:49:32;7.47;;;3.30;;
9392;SDS011;4736;52.508;13.422;2022-10-03T11:53:00;10.77;;;3.17;;
9392;SDS011;4736;52.508;13.422;2022-10-03T11:56:19;6.37;;;3.13;;
9392;SDS011;4736;52.508;13.422;2022-10-03T11:59:35;7.40;;;2.93;;
9392;SDS011;4736;52.508;13.422;2022-10-03T12:02:59;5.80;;;2.90;;
9392;SDS011;4736;52.508;13.422;2022-10-03T12:06:14;6.00;;;2.63;;
9392;SDS011;4736;52.508;13.422;2022-10-03T12:10:02;5.77;;;2.40;;
9392;SDS011;4736;52.508;13.422;2022-10-03T12:13:14;6.47;;;3.10;;
9392;SDS011;4736;52.508;13.422;2022-10-03T12:16:21;4.90;;;3.03;;
9392;SDS011;4736;52.508;13.422;2022-10-03T12:19:30;7.37;;;2.87;;
9392;SDS011;4736;52.508;13.422;2022-10-03T12:22:40;4.43;;;3.00;;
9392;SDS011;4736;52.508;13.422;2022-10-03T12:25:48;6.73;;;2.87;;
9392;SDS011;4736;52.508;13.422;2022-10-03T12:28:53;7.70;;;3.07;;
9392;SDS011;4736;52.508;13.422;2022-10-03T12:32:01;4.47;;;2.90;;
9392;SDS011;4736;52.508;13.422;2022-10-03T12:35:23;10.10;;;3.17;;
9392;SDS011;4736;52.508;13.422;2022-10-03T12:38:41;7.87;;;3.10;;
9392;SDS011;4736;52.508;13.422;2022-10-03T12:42:03;6.07;;;3.10;;
9392;SDS011;4736;52.508;13.422;2022-10-03T12:45:20;10.83;;;3.50;;
9392;SDS011;4736;52.508;13.422;2022-10-03T12:48:32;8.50;;;3.10;;
9392;SDS011;4736;52.508;13.422;2022-10-03T12:51:46;6.03;;;3.40;;
9392;SDS011;4736;52.508;13.422;2022-10-03T12:55:00;4.77;;;2.83;;
9392;SDS011;4736;52.508;13.422;2022-10-03T12:58:19;5.43;;;2.87;;
9392;SDS011;4736;52.508;13.422;2022-10-03T13:01:35;6.30;;;2.83;;
9392;SDS011;4736;52.508;13.422;2022-10-03T13:04:57;4.73;;;2.60;;
9392;SDS011;4736;52.508;13.422;2022-10-03T13:08:28;3.33;;;2.80;;
9392;SDS011;4736;52.508;13.422;2022-10-03T13:11:48;5.17;;;2.93;;
9392;SDS011;4736;52.508;13.422;2022-10-03T13:18:48;5.07;;;3.07;;
9392;SDS011;4736;52.508;13.422;2022-10-03T13:22:00;4.50;;;2.60;;
9392;SDS011;4736;52.508;13.422;2022-10-03T13:25:08;4.77;;;2.30;;
9392;SDS011;4736;52.508;13.422;2022-10-03T13:28:19;4.17;;;2.87;;
9392;SDS011;4736;52.508;13.422;2022-10-03T13:31:31;3.90;;;2.47;;
9392;SDS011;4736;52.508;13.422;2022-10-03T13:34:39;3.73;;;2.63;;
9392;SDS011;4736;52.508;13.422;2022-10-03T13:38:12;2.67;;;2.40;;
9392;SDS011;4736;52.508;13.422;2022-10-03T13:41:36;3.63;;;2.30;;
9392;SDS011;4736;52.508;13.422;2022-10-03T13:44:53;7.40;;;2.90;;
9392;SDS011;4736;52.508;13.422;2022-10-03T13:48:00;2.73;;;2.40;;
9392;SDS011;4736;52.508;13.422;2022-10-03T13:51:17;6.47;;;2.80;;
9392;SDS011;4736;52.508;13.422;2022-10-03T13:58:15;4.87;;;2.40;;
9392;SDS011;4736;52.508;13.422;2022-10-03T14:01:36;5.67;;;2.73;;
9392;SDS011;4736;52.508;13.422;2022-10-03T14:04:54;4.10;;;2.80;;
9392;SDS011;4736;52.508;13.422;2022-10-03T14:08:06;9.10;;;3.30;;
9392;SDS011;4736;52.508;13.422;2022-10-03T14:11:17;6.67;;;3.00;;
9392;SDS011;4736;52.508;13.422;2022-10-03T14:14:33;6.67;;;2.80;;
9392;SDS011;4736;52.508;13.422;2022-10-03T14:17:48;7.27;;;2.80;;
9392;SDS011;4736;52.508;13.422;2022-10-03T14:21:15;8.90;;;2.67;;
9392;SDS011;4736;52.508;13.422;2022-10-03T14:24:44;5.70;;;3.10;;
9392;SDS011;4736;52.508;13.422;2022-10-03T14:27:59;6.70;;;2.80;;
9392;SDS011;4736;52.508;13.422;2022-10-03T14:31:09;4.20;;;2.60;;
9392;SDS011;4736;52.508;13.422;2022-10-03T14:34:27;7.03;;;2.90;;
9392;SDS011;4736;52.508;13.422;2022-10-03T14:37:43;3.37;;;2.80;;
9392;SDS011;4736;52.508;13.422;2022-10-03T14:40:57;6.87;;;3.33;;
9392;SDS011;4736;52.508;13.422;2022-10-03T14:44:06;8.17;;;3.10;;
9392;SDS011;4736;52.508;13.422;2022-10-03T14:47:14;5.73;;;2.80;;
9392;SDS011;4736;52.508;13.422;2022-10-03T14:50:20;6.93;;;2.70;;
9392;SDS011;4736;52.508;13.422;2022-10-03T14:53:26;3.57;;;2.97;;
9392;SDS011;4736;52.508;13.422;2022-10-03T14:56:33;5.87;;;3.33;;
9392;SDS011;4736;52.508;13.422;2022-10-03T14:59:43;4.47;;;2.80;;
9392;SDS011;4736;52.508;13.422;2022-10-03T15:02:54;4.20;;;3.27;;
9392;SDS011;4736;52.508;13.422;2022-10-03T15:05:58;3.93;;;2.93;;
9392;SDS011;4736;52.508;13.422;2022-10-03T15:09:04;5.63;;;3.00;;
9392;SDS011;4736;52.508;13.422;2022-10-03T15:12:14;7.47;;;3.20;;
9392;SDS011;4736;52.508;13.422;2022-10-03T15:15:22;5.60;;;3.10;;
9392;SDS011;4736;52.508;13.422;2022-10-03T15:18:27;11.17;;;3.27;;
9392;SDS011;4736;52.508;13.422;2022-10-03T15:21:32;10.57;;;3.50;;
9392;SDS011;4736;52.508;13.422;2022-10-03T15:24:37;10.43;;;3.63;;
9392;SDS011;4736;52.508;13.422;2022-10-03T15:27:44;5.87;;;2.97;;
9392;SDS011;4736;52.508;13.422;2022-10-03T15:30:50;7.57;;;3.07;;
9392;SDS011;4736;52.508;13.422;2022-10-03T15:33:56;4.00;;;2.70;;
9392;SDS011;4736;52.508;13.422;2022-10-03T15:37:03;7.80;;;3.00;;
9392;SDS011;4736;52.508;13.422;2022-10-03T15:40:19;4.67;;;3.30;;
9392;SDS011;4736;52.508;13.422;2022-10-03T15:43:31;5.10;;;3.27;;
9392;SDS011;4736;52.508;13.422;2022-10-03T15:46:38;7.77;;;3.17;;
9392;SDS011;4736;52.508;13.422;2022-10-03T15:49:45;6.13;;;3.13;;
9392;SDS011;4736;52.508;13.422;2022-10-03T15:52:55;4.40;;;3.27;;
9392;SDS011;4736;52.508;13.422;2022-10-03T15:56:22;8.27;;;3.30;;
9392;SDS011;4736;52.508;13.422;2022-10-03T15:59:31;6.37;;;2.97;;
9392;SDS011;4736;52.508;13.422;2022-10-03T16:02:38;4.87;;;3.03;;
9392;SDS011;4736;52.508;13.422;2022-10-03T16:05:54;6.40;;;3.20;;
9392;SDS011;4736;52.508;13.422;2022-10-03T16:09:05;12.80;;;3.30;;
9392;SDS011;4736;52.508;13.422;2022-10-03T16:12:41;8.77;;;3.53;;
9392;SDS011;4736;52.508;13.422;2022-10-03T16:16:03;14.30;;;4.20;;
9392;SDS011;4736;52.508;13.422;2022-10-03T16:19:24;5.60;;;3.20;;
9392;SDS011;4736;52.508;13.422;2022-10-03T16:22:33;7.90;;;3.77;;
9392;SDS011;4736;52.508;13.422;2022-10-03T16:25:45;7.20;;;3.30;;
9392;SDS011;4736;52.508;13.422;2022-10-03T16:28:50;8.63;;;3.90;;
9392;SDS011;4736;52.508;13.422;2022-10-03T16:32:04;10.07;;;3.53;;
9392;SDS011;4736;52.508;13.422;2022-10-03T16:35:21;7.17;;;3.40;;
9392;SDS011;4736;52.508;13.422;2022-10-03T16:38:33;10.80;;;3.83;;
9392;SDS011;4736;52.508;13.422;2022-10-03T16:41:38;4.10;;;3.00;;
9392;SDS011;4736;52.508;13.422;2022-10-03T16:44:47;5.77;;;3.20;;
9392;SDS011;4736;52.508;13.422;2022-10-03T16:47:54;6.33;;;3.17;;
9392;SDS011;4736;52.508;13.422;2022-10-03T16:51:18;7.40;;;3.23;;
9392;SDS011;4736;52.508;13.422;2022-10-03T16:54:22;6.77;;;3.20;;
9392;SDS011;4736;52.508;13.422;2022-10-03T16:57:28;4.83;;;3.00;;
9392;SDS011;4736;52.508;13.422;2022-10-03T17:00:38;7.37;;;3.70;;
9392;SDS011;4736;52.508;13.422;2022-10-03T17:04:11;7.40;;;3.50;;
9392;SDS011;4736;52.508;13.422;2022-10-03T17:07:17;5.90;;;3.33;;
9392;SDS011;4736;52.508;13.422;2022-10-03T17:10:32;6.43;;;3.30;;
9392;SDS011;4736;52.508;13.422;2022-10-03T17:13:38;3.57;;;2.93;;
9392;SDS011;4736;52.508;13.422;2022-10-03T17:16:48;4.07;;;3.20;;
9392;SDS011;4736;52.508;13.422;2022-10-03T17:19:58;6.50;;;3.30;;
9392;SDS011;4736;52.508;13.422;2022-10-03T17:23:08;7.00;;;3.30;;
9392;SDS011;4736;52.508;13.422;2022-10-03T17:26:15;4.10;;;2.90;;
9392;SDS011;4736;52.508;13.422;2022-10-03T17:29:25;7.83;;;3.23;;
9392;SDS011;4736;52.508;13.422;2022-10-03T17:32:34;5.07;;;2.90;;
9392;SDS011;4736;52.508;13.422;2022-10-03T17:35:43;7.03;;;3.20;;
9392;SDS011;4736;52.508;13.422;2022-10-03T17:38:51;3.23;;;2.60;;
9392;SDS011;4736;52.508;13.422;2022-10-03T17:42:03;4.43;;;2.77;;
9392;SDS011;4736;52.508;13.422;2022-10-03T17:45:16;5.90;;;2.63;;
9392;SDS011;4736;52.508;13.422;2022-10-03T17:48:33;6.20;;;3.30;;
9392;SDS011;4736;52.508;13.422;2022-10-03T17:51:41;6.10;;;3.00;;
9392;SDS011;4736;52.508;13.422;2022-10-03T17:54:50;6.60;;;3.40;;
9392;SDS011;4736;52.508;13.422;2022-10-03T17:57:57;7.07;;;3.20;;
9392;SDS011;4736;52.508;13.422;2022-10-03T18:01:04;3.90;;;3.13;;
9392;SDS011;4736;52.508;13.422;2022-10-03T18:04:14;4.07;;;2.70;;
9392;SDS011;4736;52.508;13.422;2022-10-03T18:07:20;3.27;;;3.00;;
9392;SDS011;4736;52.508;13.422;2022-10-03T18:10:27;6.73;;;2.97;;
9392;SDS011;4736;52.508;13.422;2022-10-03T18:13:36;4.70;;;3.07;;
9392;SDS011;4736;52.508;13.422;2022-10-03T18:16:43;4.77;;;3.17;;
9392;SDS011;4736;52.508;13.422;2022-10-03T18:19:51;5.30;;;3.00;;
9392;SDS011;4736;52.508;13.422;2022-10-03T18:23:11;3.60;;;2.50;;
9392;SDS011;4736;52.508;13.422;2022-10-03T18:26:44;4.77;;;2.87;;
9392;SDS011;4736;52.508;13.422;2022-10-03T18:29:50;5.40;;;2.60;;
9392;SDS011;4736;52.508;13.422;2022-10-03T18:32:58;4.97;;;2.67;;
9392;SDS011;4736;52.508;13.422;2022-10-03T18:36:06;6.50;;;2.70;;
9392;SDS011;4736;52.508;13.422;2022-10-03T18:39:17;4.37;;;2.77;;
9392;SDS011;4736;52.508;13.422;2022-10-03T18:42:24;4.93;;;3.00;;
9392;SDS011;4736;52.508;13.422;2022-10-03T18:45:30;3.40;;;2.60;;
9392;SDS011;4736;52.508;13.422;2022-10-03T18:48:40;2.90;;;2.70;;
9392;SDS011;4736;52.508;13.422;2022-10-03T18:52:20;3.03;;;2.87;;
9392;SDS011;4736;52.508;13.422;2022-10-03T18:55:27;3.20;;;2.93;;
9392;SDS011;4736;52.508;13.422;2022-10-03T18:58:36;4.50;;;3.20;;
9392;SDS011;4736;52.508;13.422;2022-10-03T19:01:48;4.57;;;3.20;;
9392;SDS011;4736;52.508;13.422;2022-10-03T19:04:55;4.97;;;3.30;;
9392;SDS011;4736;52.508;13.422;2022-10-03T19:08:07;5.33;;;3.40;;
9392;SDS011;4736;52.508;13.422;2022-10-03T19:11:16;4.73;;;3.07;;
9392;SDS011;4736;52.508;13.422;2022-10-03T19:14:25;5.00;;;3.40;;
9392;SDS011;4736;52.508;13.422;2022-10-03T19:17:32;7.93;;;3.33;;
9392;SDS011;4736;52.508;13.422;2022-10-03T19:20:42;6.40;;;4.00;;
9392;SDS011;4736;52.508;13.422;2022-10-03T19:23:48;7.00;;;4.30;;
9392;SDS011;4736;52.508;13.422;2022-10-03T19:26:57;7.03;;;4.00;;
9392;SDS011;4736;52.508;13.422;2022-10-03T19:30:04;7.50;;;3.90;;
9392;SDS011;4736;52.508;13.422;2022-10-03T19:33:11;8.57;;;3.40;;
9392;SDS011;4736;52.508;13.422;2022-10-03T19:36:18;5.50;;;3.27;;
9392;SDS011;4736;52.508;13.422;2022-10-03T19:39:23;8.07;;;4.30;;
9392;SDS011;4736;52.508;13.422;2022-10-03T19:42:31;8.73;;;3.60;;
9392;SDS011;4736;52.508;13.422;2022-10-03T19:45:44;8.60;;;4.13;;
9392;SDS011;4736;52.508;13.422;2022-10-03T19:48:52;6.07;;;3.80;;
9392;SDS011;4736;52.508;13.422;2022-10-03T19:52:23;9.93;;;3.80;;
9392;SDS011;4736;52.508;13.422;2022-10-03T19:55:29;7.77;;;3.97;;
9392;SDS011;4736;52.508;13.422;2022-10-03T19:58:35;6.10;;;3.80;;
9392;SDS011;4736;52.508;13.422;2022-10-03T20:01:42;5.00;;;3.40;;
9392;SDS011;4736;52.508;13.422;2022-10-03T20:04:46;9.70;;;3.93;;
9392;SDS011;4736;52.508;13.422;2022-10-03T20:07:53;6.40;;;3.60;;
9392;SDS011;4736;52.508;13.422;2022-10-03T20:11:03;6.77;;;3.67;;
9392;SDS011;4736;52.508;13.422;2022-10-03T20:14:15;8.13;;;3.57;;
9392;SDS011;4736;52.508;13.422;2022-10-03T20:17:23;4.23;;;3.53;;
9392;SDS011;4736;52.508;13.422;2022-10-03T20:20:27;7.53;;;4.00;;
9392;SDS011;4736;52.508;13.422;2022-10-03T20:23:33;5.13;;;3.93;;
9392;SDS011;4736;52.508;13.422;2022-10-03T20:26:42;8.70;;;3.70;;
9392;SDS011;4736;52.508;13.422;2022-10-03T20:29:55;4.87;;;3.73;;
9392;SDS011;4736;52.508;13.422;2022-10-03T20:33:18;3.67;;;3.33;;
9392;SDS011;4736;52.508;13.422;2022-10-03T20:36:23;6.60;;;3.77;;
9392;SDS011;4736;52.508;13.422;2022-10-03T20:39:30;11.17;;;3.90;;
9392;SDS011;4736;52.508;13.422;2022-10-03T20:42:37;5.33;;;3.50;;
9392;SDS011;4736;52.508;13.422;2022-10-03T20:45:49;8.13;;;3.70;;
9392;SDS011;4736;52.508;13.422;2022-10-03T20:49:10;5.67;;;3.17;;
9392;SDS011;4736;52.508;13.422;2022-10-03T20:52:20;5.30;;;3.87;;
9392;SDS011;4736;52.508;13.422;2022-10-03T20:55:26;5.97;;;3.50;;
9392;SDS011;4736;52.508;13.422;2022-10-03T20:58:33;5.17;;;3.33;;
9392;SDS011;4736;52.508;13.422;2022-10-03T21:01:42;5.27;;;3.93;;
9392;SDS011;4736;52.508;13.422;2022-10-03T21:04:49;6.77;;;3.63;;
9392;SDS011;4736;52.508;13.422;2022-10-03T21:07:55;6.93;;;3.73;;
9392;SDS011;4736;52.508;13.422;2022-10-03T21:11:01;8.97;;;3.97;;
9392;SDS011;4736;52.508;13.422;2022-10-03T21:14:09;5.90;;;3.20;;
9392;SDS011;4736;52.508;13.422;2022-10-03T21:17:19;7.50;;;3.40;;
9392;SDS011;4736;52.508;13.422;2022-10-03T21:20:23;7.30;;;3.70;;
9392;SDS011;4736;52.508;13.422;2022-10-03T21:23:34;9.03;;;3.30;;
9392;SDS011;4736;52.508;13.422;2022-10-03T21:26:43;6.30;;;3.33;;
9392;SDS011;4736;52.508;13.422;2022-10-03T21:29:54;7.80;;;3.27;;
9392;SDS011;4736;52.508;13.422;2022-10-03T21:33:02;8.53;;;3.83;;
9392;SDS011;4736;52.508;13.422;2022-10-03T21:36:11;8.07;;;3.50;;
9392;SDS011;4736;52.508;13.422;2022-10-03T21:39:20;10.63;;;3.57;;
9392;SDS011;4736;52.508;13.422;2022-10-03T21:42:30;9.83;;;3.37;;
9392;SDS011;4736;52.508;13.422;2022-10-03T21:45:43;6.80;;;3.37;;
9392;SDS011;4736;52.508;13.422;2022-10-03T21:52:30;7.10;;;3.30;;
9392;SDS011;4736;52.508;13.422;2022-10-03T21:55:44;12.37;;;3.60;;
9392;SDS011;4736;52.508;13.422;2022-10-03T21:59:03;5.03;;;3.30;;
9392;SDS011;4736;52.508;13.422;2022-10-03T22:02:17;9.60;;;4.17;;
9392;SDS011;4736;52.508;13.422;2022-10-03T22:05:32;10.70;;;3.90;;